Flight Track Log - Related Links

Times and Time Zones

All times are in EDT time to prevent confusion due to time zone crossing. See the N818GM flight status page for this flight to view local times or setup timezone preferences in your user account.

Time Position Orientation Groundspeed Altitude Reporting Facility
EDT Latitude Longitude Course Direction KTS MPH feet Rate Location/Type
Thu 13:38:00 30.5046 -84.3121 134° Southeast  Level FlightAware
Thu 13:39:00 30.4722 -84.2732 134° Southeast  Level FlightAware
Thu 13:40:00 30.4440 -84.2303 126° Southeast  Level FlightAware
Thu 13:41:00 30.4166 -84.1866 126° Southeast  Level FlightAware
Thu 13:42:00 30.3893 -84.1429 126° Southeast  Level FlightAware
Thu 13:43:00 30.3601 -84.1008 130° Southeast  Level FlightAware
Thu 13:44:00 30.3286 -84.0567 130° Southeast  Level FlightAware
Thu 13:45:00 30.2972 -84.0125 128° Southeast  Level FlightAware
Thu 13:46:00 30.2671 -83.9672 128° Southeast  Level FlightAware
Thu 13:47:00 30.2369 -83.9220 128° Southeast  Level FlightAware
Thu 13:47:05 30.2617 -84.0014 133° Southeast 162 186 6,300  Level Jacksonville Center
Thu 13:48:00 30.2068 -83.8767 128° Southeast  Level FlightAware
Thu 13:48:05 30.2308 -83.9600 131° Southeast 162 186 7,000  Level Jacksonville Center
Thu 13:49:00 30.1766 -83.8315 128° Southeast  Level FlightAware
Thu 13:49:05 30.1997 -83.9139 128° Southeast 162 186 7,000  Level Jacksonville Center
Thu 13:50:00 30.1441 -83.7885 133° Southeast  Level FlightAware
Thu 13:50:05 30.1689 -83.8681 128° Southeast 173 199 6,900  Level Jacksonville Center
Thu 13:51:00 30.1106 -83.7465 133° Southeast  Level FlightAware
Thu 13:51:05 30.1358 -83.8219 130° Southeast 179 206 7,000  Level Jacksonville Center
Thu 13:52:00 30.0778 -83.7055 133° Southeast  Level FlightAware
Thu 13:52:05 30.1028 -83.7761 130° Southeast 185 213 7,000  Level Jacksonville Center
Thu 13:53:05 30.0717 -83.7278 127° Southeast 185 213 7,000  Level Jacksonville Center
Thu 13:54:05 30.0386 -83.6819 130° Southeast 185 213 7,000  Level Jacksonville Center
Thu 13:55:05 30.0056 -83.6336 128° Southeast 185 213 7,000  Level Jacksonville Center
Thu 13:56:05 29.9722 -83.5878 130° Southeast 185 213 7,000  Level Jacksonville Center
Thu 13:57:05 29.9414 -83.5397 127° Southeast 185 213 7,000  Level Jacksonville Center
Thu 13:58:05 29.9103 -83.4964 130° Southeast 185 213 7,000  Level Jacksonville Center
Thu 13:59:05 29.8769 -83.4483 129° Southeast 185 213 7,000  Level Jacksonville Center
Thu 14:00:05 29.8439 -83.4003 128° Southeast 185 213 7,000  Level Jacksonville Center
Thu 14:01:05 29.8106 -83.3544 130° Southeast 185 213 7,000  Level Jacksonville Center
Thu 14:02:05 29.7711 -83.3233 146° Southeast 185 213 7,000  Level Jacksonville Center
Thu 14:03:05 29.7208 -83.3231 180° South 169 194 7,000  Level Jacksonville Center
Thu 14:04:05 29.6708 -83.3206 178° South 174 200 7,000  Level Jacksonville Center
Thu 14:05:05 29.6206 -83.3203 180° South 180 207 7,000  Level Jacksonville Center
Thu 14:06:05 29.5728 -83.3128 172° South 180 207 7,000  Level Jacksonville Center
Thu 14:07:05 29.5247 -83.2958 163° South 180 207 7,000  Level Jacksonville Center
Thu 14:08:05 29.4808 -83.2814 164° South 180 207 7,000  Level Jacksonville Center
Thu 14:09:05 29.4350 -83.2669 165° South 180 207 7,000  Level Jacksonville Center
Thu 14:10:05 29.3892 -83.2478 160° South 180 207 7,000  Level Jacksonville Center
Thu 14:11:05 29.3433 -83.2236 155° Southeast 180 207 7,000  Level Jacksonville Center
Thu 14:12:05 29.3017 -83.1975 151° Southeast 180 207 7,000  Level Jacksonville Center
Thu 14:13:05 29.2600 -83.1711 151° Southeast 180 207 7,000 -50 Level Jacksonville Center
Thu 14:14:05 29.2161 -83.1447 152° Southeast 175 201 6,900 -50 Descending Jacksonville Center
Thu 14:15:05 29.1725 -83.1186 152° Southeast 175 201 6,900  Level Jacksonville Center
Thu 14:16:05 29.1286 -83.0947 155° Southeast 175 201 6,900  Level Jacksonville Center
Thu 14:17:05 29.0847 -83.0708 155° Southeast 175 201 6,900  Level Jacksonville Center
Thu 14:18:05 29.0411 -83.0444 152° Southeast 175 201 6,900  Level Jacksonville Center
Thu 14:19:05 28.9972 -83.0183 153° Southeast 175 201 6,900  Level Jacksonville Center
Thu 14:20:05 28.9533 -82.9969 157° South 175 201 6,900  Level Jacksonville Center
Thu 14:21:05 28.9075 -82.9756 158° South 175 201 6,900  Level Jacksonville Center
Thu 14:22:05 28.8617 -82.9519 156° South 175 201 6,900  Level Jacksonville Center
Thu 14:23:05 28.8178 -82.9328 159° South 175 201 6,900  Level Jacksonville Center
Thu 14:26:00 28.7337 -82.8879 155° Southeast  Level FlightAware
Thu 14:33:00 28.4344 -82.7281 155° Southeast  Level FlightAware
Thu 14:34:00 28.3916 -82.7053 155° Southeast  Level FlightAware
Thu 14:35:00 28.3489 -82.6825 155° Southeast  Level FlightAware
Thu 14:36:00 28.3061 -82.6597 155° Southeast  Level FlightAware
Thu 14:37:00 28.2634 -82.6370 155° Southeast  Level FlightAware
Thu 14:38:00 28.2206 -82.6142 155° Southeast  Level FlightAware
Thu 14:39:00 28.1778 -82.5915 155° Southeast  Level FlightAware
Thu 14:40:00 28.1351 -82.5688 155° Southeast  Level FlightAware
Thu 14:41:00 28.0923 -82.5461 155° Southeast  Level FlightAware
Thu 14:42:00 28.0495 -82.5235 155° Southeast  Level FlightAware
Thu 14:43:00 28.0068 -82.5008 155° Southeast  Level FlightAware
Thu 14:44:00 27.9640 -82.4782 155° Southeast  Level FlightAware
Thu 14:45:00 27.9212 -82.4556 155° Southeast  Level FlightAware
Thu 14:46:00 27.8784 -82.4330 155° Southeast  Level FlightAware
Thu 14:47:00 27.8356 -82.4105 155° Southeast  Level FlightAware
Thu 14:48:00 27.7928 -82.3879 155° Southeast  Level FlightAware
Thu 14:49:00 27.7500 -82.3654 155° Southeast  Level FlightAware
Thu 14:50:00 27.7072 -82.3428 155° Southeast  Level FlightAware
Thu 14:51:00 27.6644 -82.3203 155° Southeast  Level FlightAware
Thu 14:52:00 27.6216 -82.2979 155° Southeast  Level FlightAware
Thu 14:53:00 27.5788 -82.2754 155° Southeast  Level FlightAware
Thu 14:54:00 27.5359 -82.2529 155° Southeast  Level FlightAware
Thu 14:55:00 27.4931 -82.2305 155° Southeast  Level FlightAware
Thu 14:56:00 27.4504 -82.2078 154° Southeast  Level FlightAware
Thu 14:57:00 27.4079 -82.1845 154° Southeast  Level FlightAware
Thu 14:58:00 27.3655 -82.1613 154° Southeast  Level FlightAware
Thu 14:59:00 27.3230 -82.1381 154° Southeast  Level FlightAware
Thu 15:00:00 27.2805 -82.1149 154° Southeast  Level FlightAware
Thu 15:01:00 27.2380 -82.0918 154° Southeast  Level FlightAware
Thu 15:02:00 27.1955 -82.0686 154° Southeast  Level FlightAware
Thu 15:03:00 27.1530 -82.0455 154° Southeast  Level FlightAware
Thu 15:04:00 27.1105 -82.0224 154° Southeast  Level FlightAware
Thu 15:05:00 27.0676 -82.0004 156° South  Level FlightAware
Thu 15:06:00 27.0244 -81.9788 156° South  Level FlightAware
Thu 15:07:00 26.9813 -81.9572 156° South  Level FlightAware
Thu 15:08:00 26.9382 -81.9357 156° South  Level FlightAware
Thu 15:09:00 26.8951 -81.9141 156° South  Level FlightAware
Thu 15:10:00 26.8519 -81.8926 156° South  Level FlightAware
Thu 15:11:00 26.8091 -81.8704 154° Southeast  Level FlightAware
Thu 15:12:00 26.7665 -81.8476 155° Southeast  Level FlightAware
Thu 15:13:00 26.7238 -81.8248 155° Southeast  Level FlightAware
Thu 15:14:00 26.6812 -81.8021 155° Southeast  Level FlightAware
Thu 15:15:00 26.6386 -81.7794 155° Southeast  Level FlightAware
Thu 15:16:00 26.5959 -81.7567 155° Southeast  Level FlightAware
Thu 15:17:00 26.5509 -81.7581 193° South  Level FlightAware
Thu 15:18:00 26.5045 -81.7667 180° South  Level FlightAware
Thu 15:19:00 26.4573 -81.7667 180° South  Level FlightAware
Thu 15:20:00 26.4101 -81.7667 180° South  Level FlightAware
Thu 15:21:00 26.3628 -81.7667 180° South  Level FlightAware
Thu 15:22:00 26.3156 -81.7667 180° South  Level FlightAware
Thu 15:23:00 26.2684 -81.7667 180° South  Level FlightAware
Thu 15:24:00 26.2212 -81.7667 180° South  Level FlightAware
Thu 15:25:00 26.1740 -81.7667 180° South  Level FlightAware
Thu 15:26:00 26.1500 -81.7667 180° South  Level FlightAware
Thu 15:27:00 26.1524 -81.7756 180° South  Level Estimated
Thu 15:28:00 26.1524 -81.7756 180° South  Level Estimated
Thu 15:29:00 26.1524 -81.7756 180° South  Level Estimated
Thu 15:30:00 26.1524 -81.7756 180° South  Level Estimated
Thu 15:31:00 26.1524 -81.7756 180° South  Level Estimated
Thu 15:32:00 26.1524 -81.7756 180° South  Level Estimated
Thu 15:33:00 26.1524 -81.7756 180° South  Level Estimated

Login

Don't have an account? Register now (free) for customized features, flight alerts, and more!